AirNav   Get Bose SoundSport FEEE
 
 622 users online  

C74 Cassville Municipal Airport
Cassville, Wisconsin, USA

GOING TO CASSVILLE?


FAA INFORMATION EFFECTIVE 15 AUGUST 2019

Location

FAA Identifier: C74
Lat/Long: 42-42-15.3750N 090-57-57.9850W
42-42.256250N 090-57.966417W
42.7042708,-90.9661069
(estimated)
Elevation: 627 ft. / 191 m (estimated)
Variation: 02E (1985)
From city: 1 mile SE of CASSVILLE, WI
Time zone: UTC -5 (UTC -6 during Standard Time)
Zip code: 53806

Airport Operations

Airport use: Open to the public
Activation date: 09/1951
Control tower: no
ARTCC: CHICAGO CENTER
FSS: GREEN BAY FLIGHT SERVICE STATION
NOTAMs facility: GRB (NOTAM-D service available)
Attendance: UNATNDD
Wind indicator: lighted
Segmented circle: no
Lights: SS-SR

Airport Communications

CTAF: 122.9

Nearby radio navigation aids

VOR radial/distance  VOR name  Freq  Var
DBQr324/21.4DUBUQUE VORTAC115.8004E

Airport Services

Parking: tiedowns
Airframe service: NONE
Powerplant service: NONE
Bottled oxygen: NONE
Bulk oxygen: NONE

Runway Information

Runway 11/29

Dimensions: 3000 x 50 ft. / 914 x 15 m
Surface: asphalt, in poor condition
NMRS CRACKS AND VEGETATION GROWING ENTIRE PAVEMENT LEN.
Weight bearing capacity: 
Single wheel: 21.0
Double wheel: 40.0
Runway edge lights: non-standard
THR LGTS EMIT GREEN ONLY.
RUNWAY 11  RUNWAY 29
Latitude: 42-42.344167N42-42.168333N
Longitude: 090-58.279000W090-57.653833W
Elevation: 627.0 ft.627.0 ft.
Traffic pattern: rightleft
Displaced threshold: no600 ft.
Markings: nonenone
Runway end identifier lights: nono
Obstructions: 40 ft. tree, 200 ft. from runway, 105 ft. left of centerline
30 FT BRUSH 0-200 FT FM THR 105 FT L.
15 ft. road, lighted, 200 ft. from runway, 90 ft. left of centerline
4 FT FENCE 70 FT L & ROAD 90 FT L OF EXTDD CNTRLN.

Airport Ownership and Management from official FAA records

Ownership: Publicly-owned
Owner: VILLAGE OF CASSVILLE
PO BOX 171
CASSVILLE, WI 53806
Phone 608-725-5180
Manager: AL MULLER
1202 JACK OAK ROAD
CASSVILLE, WI 53806
Phone (608) 725-5895

Airport Operational Statistics

Aircraft based on the field: 8
Single engine airplanes: 7
Ultralights: 1
    
Aircraft operations: avg 59/week *
74% local general aviation
24% transient general aviation
2% air taxi
* for 12-month period ending 26 September 2018

Additional Remarks

1350 FT X 20 FT TWY WEST END RWY 11.
200 FT STACK 3900 FT W RWY 11.
270 FT BLUFF PARALLELS RWY 800 FT N.
FOR WINTER COND & SNOW REMOVAL CALL AMGR.
FOR CD CTC CHICAGO ARTCC AT 630-906-8921.

Instrument Procedures

There are no published instrument procedures at C74.

Some nearby airports with instrument procedures:

KPDC - Prairie du Chien Municipal Airport (20 nm N)
KDBQ - Dubuque Regional Airport (21 nm SE)
KPVB - Platteville Municipal Airport (23 nm E)
KOVS - Boscobel Airport (30 nm NE)
KMXO - Monticello Regional Airport (30 nm S)
 
Loc | Ops | Rwys | IFR | FBO | Links
Com | Nav | Svcs | Stats | Notes
Area around C74 (Cassville Municipal Airport)
 
Road maps at: MapQuest Bing Google
 
Aerial photo
WARNING: Photo may not be current or correct
Aerial photo of C74 (Cassville Municipal Airport)
Do you have a better or more recent aerial photo of Cassville Municipal Airport that you would like to share? If so, please send us your photo.

 
Sectional chart

 
Airport distance calculator
Flying to Cassville Municipal Airport? Find the distance to fly.

From to C74

Sunrise and sunset
Times for 17-Aug-2019
 Local
(UTC-5)
 Zulu
(UTC)
Morning civil twilight05:4310:43
Sunrise06:1311:13
Sunset20:0201:02
Evening civil twilight20:3301:33

Current date and time
Zulu (UTC)  17-Aug-2019 12:01:44
Local (UTC-5)  17-Aug-2019 07:01:44
 
METAR
KPDC 
20nm N 
171155Z AUTO 00000KT 10SM CLR 15/14 A2991 RMK AO2 T01500142 10164 20146
KDBQ 
22nm SE 
171153Z 00000KT 10SM CLR 15/14 A2993 RMK AO2 SLP133 T01500144 10178 20139 53012
KPVB 
23nm E 
171155Z AUTO 36003KT 7SM CLR 14/14 A2993 RMK AO1 T01360136 10180 20133
KOVS 
29nm NE 
171153Z AUTO 00000KT 1SM BR OVC002 16/15 A2993 RMK AO2 SLP132 T01560150 10167 20139 51044
KMXO 
31nm S 
171155Z AUTO RMK AO2 PNO PWINO
KMRJ 
35nm E 
171155Z AUTO 15/15 A2992 RMK AO2 PWINO
TAF
KDBQ 
22nm SE 
171120Z 1712/1812 VRB04KT 6SM BR SCT120 FM171700 16009KT P6SM SCT025 FM180800 19009KT 4SM -TSRA OVC040CB FM181100 20009KT P6SM BKN020
NOTAMs
Click for the latest NOTAMs
NOTAMs are issued by the DoD/FAA and will open in a separate window not controlled by AirNav.

 

 
 

Where to Eat: Catering, Restaurants, Food shops

  
 Business Name 
 
 Contact 
 
 Services / Description 
 
Distance
 
Comments
  
Sand Bar 608-725-5055
no information available

If you are affiliated with Sand Bar and would like to show here your services, contact info, web link, logo, and more, click here
0.2 miles  
   write
 

Would you like to see your business listed on this page?

 If your business provides an interesting product or service to pilots, flight crews, aircraft, or users of the Cassville Municipal Airport, you should consider listing it here.  To start the listing process, click on the button below
 
Add a business
 

Other Pages about Cassville Municipal Airport

Page from the Wisconsin airport directory (PDF)
 
Update a link
 
Copyright © AirNav, LLC. All rights reserved. Privacy Policy  Contact